createdAt,value
2023-04-03T00:01:17.736Z,100524.31
2023-04-03T00:11:19.212Z,100517.88
2023-04-03T00:21:20.721Z,100529.16
2023-04-03T00:31:22.296Z,100527.03
2023-04-03T00:41:23.835Z,100518.53
2023-04-03T00:51:25.324Z,100520.59
2023-04-03T01:01:28.122Z,100518.63
2023-04-03T01:11:29.562Z,100518.00
2023-04-03T01:21:30.969Z,100515.00
2023-04-03T01:31:35.770Z,100524.63
2023-04-03T01:41:37.205Z,100511.16
2023-04-03T01:51:38.676Z,100522.91
2023-04-03T02:01:40.301Z,100519.69
2023-04-03T02:11:41.742Z,100516.09
2023-04-03T02:21:43.210Z,100512.00
2023-04-03T02:31:44.616Z,100518.78
2023-04-03T02:41:46.046Z,100517.16
2023-04-03T02:51:48.587Z,100537.41
2023-04-03T03:01:50.152Z,100529.53
2023-04-03T03:11:51.760Z,100536.16
2023-04-03T03:21:53.662Z,100538.41
2023-04-03T03:31:55.208Z,100536.09
2023-04-03T03:41:56.795Z,100536.91
2023-04-03T03:51:58.358Z,100529.41
2023-04-03T04:01:59.803Z,100529.78
2023-04-03T04:12:01.465Z,100539.84
2023-04-03T04:22:02.867Z,100544.03
2023-04-03T04:32:04.786Z,100545.59
2023-04-03T04:42:07.929Z,100538.53
2023-04-03T04:52:09.361Z,100553.31
2023-04-03T05:02:10.807Z,100562.19
2023-04-03T05:12:12.443Z,100574.41
2023-04-03T05:22:13.852Z,100578.06
2023-04-03T05:32:15.451Z,100586.34
2023-04-03T05:42:17.748Z,100601.34
2023-04-03T05:52:30.743Z,100604.06
2023-04-03T06:02:32.384Z,100612.47
2023-04-03T06:12:33.844Z,100621.50
2023-04-03T06:22:35.607Z,100617.94
2023-04-03T06:32:37.065Z,100627.22
2023-04-03T06:42:38.535Z,100621.34
2023-04-03T06:52:41.004Z,100625.25
2023-04-03T07:02:42.538Z,100629.44
2023-04-03T07:12:43.969Z,100632.53
2023-04-03T07:22:45.570Z,100643.75
2023-04-03T07:32:47.272Z,100642.25
2023-04-03T07:42:48.840Z,100648.63
2023-04-03T07:52:51.694Z,100657.41
2023-04-03T08:02:53.220Z,100646.13
2023-04-03T08:12:54.791Z,100648.16
2023-04-03T08:22:56.340Z,100656.06
2023-04-03T08:32:57.795Z,100652.34
2023-04-03T08:43:44.756Z,100660.91
2023-04-03T08:53:53.157Z,100668.03
2023-04-03T09:03:54.598Z,100649.75
2023-04-03T09:14:18.985Z,100663.22
2023-04-03T09:24:20.561Z,100663.16
2023-04-03T09:34:24.562Z,100685.75
2023-04-03T09:44:27.668Z,100669.22
2023-04-03T09:54:39.516Z,100674.97
2023-04-03T10:04:41.855Z,100666.84
2023-04-03T10:14:57.641Z,100668.25
2023-04-03T10:25:33.910Z,100647.13
2023-04-03T10:35:53.529Z,100654.22
2023-04-03T10:45:57.481Z,100644.16
2023-04-03T10:56:16.744Z,100643.88
2023-04-03T11:06:18.869Z,100632.72
2023-04-03T11:16:24.188Z,100638.59
2023-04-03T11:26:31.726Z,100616.63
2023-04-03T11:36:48.415Z,100612.53
2023-04-03T11:46:58.589Z,100597.66
2023-04-03T11:57:00.205Z,100574.63
2023-04-03T12:07:20.720Z,100568.81
2023-04-03T12:17:27.770Z,100562.13
2023-04-03T12:27:49.713Z,100560.31
2023-04-03T12:38:19.444Z,100563.06
2023-04-03T12:48:23.318Z,100552.38
2023-04-03T12:58:25.891Z,100547.53
2023-04-03T13:08:27.305Z,100528.19
2023-04-03T13:18:33.211Z,100509.91
2023-04-03T13:28:34.765Z,100529.06
2023-04-03T13:38:37.561Z,100513.94
2023-04-03T13:48:40.494Z,100503.03
2023-04-03T13:58:53.955Z,100491.78
2023-04-03T14:08:55.376Z,100497.69
2023-04-03T14:18:57.538Z,100481.38
2023-04-03T14:28:59.137Z,100463.75
2023-04-03T14:39:01.631Z,100462.56
2023-04-03T14:49:08.427Z,100462.59
2023-04-03T14:59:10.827Z,100450.66
2023-04-03T15:09:25.747Z,100453.03
2023-04-03T15:19:27.317Z,100439.25
2023-04-03T15:29:28.785Z,100436.38
2023-04-03T15:39:30.268Z,100445.81
2023-04-03T15:49:33.229Z,100454.69
2023-04-03T15:59:34.693Z,100439.88
2023-04-03T16:09:36.205Z,100449.44
2023-04-03T16:19:37.692Z,100449.28
2023-04-03T16:29:39.246Z,100453.63
2023-04-03T16:39:40.644Z,100461.50
2023-04-03T16:49:42.175Z,100456.63
2023-04-03T16:59:43.695Z,100467.34
2023-04-03T17:09:45.297Z,100462.94
2023-04-03T17:19:46.728Z,100466.59
2023-04-03T17:29:48.126Z,100474.47
2023-04-03T17:39:49.532Z,100478.47
2023-04-03T17:49:51.501Z,100473.41
2023-04-03T17:59:53.936Z,100480.75
2023-04-03T18:09:55.429Z,100483.38
2023-04-03T18:19:56.856Z,100490.38
2023-04-03T18:30:06.404Z,100491.84
2023-04-03T18:40:08.390Z,100504.03
2023-04-03T18:50:10.318Z,100510.56
2023-04-03T19:00:13.009Z,100519.06
2023-04-03T19:10:17.183Z,100527.88
2023-04-03T19:20:19.794Z,100538.56
2023-04-03T19:30:21.303Z,100537.34
2023-04-03T19:40:22.721Z,100546.16
2023-04-03T19:50:24.135Z,100540.25
2023-04-03T20:00:26.261Z,100551.59
2023-04-03T20:10:27.710Z,100546.00
2023-04-03T20:20:29.362Z,100543.94
2023-04-03T20:30:30.788Z,100542.75
2023-04-03T20:40:32.551Z,100538.84
2023-04-03T20:50:34.540Z,100540.41
2023-04-03T21:00:38.212Z,100543.41
2023-04-03T21:11:17.245Z,100542.19
2023-04-03T21:21:23.242Z,100543.34
2023-04-03T21:31:24.763Z,100550.25
2023-04-03T21:41:26.529Z,100537.31
2023-04-03T21:51:28.729Z,100538.63
2023-04-03T22:01:30.335Z,100547.78
2023-04-03T22:11:32.090Z,100548.09
2023-04-03T22:21:33.606Z,100541.97
2023-04-03T22:31:36.816Z,100545.22
2023-04-03T22:41:38.577Z,100530.47
2023-04-03T22:51:40.157Z,100524.19
2023-04-03T23:01:41.667Z,100512.97
2023-04-03T23:11:44.506Z,100503.34
2023-04-03T23:21:46.705Z,100513.63
2023-04-03T23:31:48.146Z,100519.28
2023-04-03T23:41:50.201Z,100516.09
2023-04-03T23:51:52.036Z,100515.31
